Terminal Aerodrome Forecast
Issued by NWS

Home | Current Version | Previous Version | Graphics & Text | Print | Product List | Glossary On
Versions: 1 2 3 4 5 6 7 8 9 10 11 12 13 14 15 16 17 18 19
763
FTUS41 KCLE 241124
TAFFDY
TAF
KFDY 241124Z 2412/2512 16010KT P6SM SCT060 BKN200
     FM241500 18017G25KT P6SM SCT045 BKN200
     FM250300 24014KT P6SM -SHRA SCT020 OVC060
      TEMPO 2503/2505 26025G45KT 2SM TSRA BKN015CB=

USA.gov is the U.S. government's official web portal to all federal, state and local government web resources and services.